Arapahoe, North Carolina
Current Conditions -  °F | °C
As of 6:01 PM on Monday 22 Dec 2014 (Local Time) from KNKT Reporting Station
Moderate Fog Moderate Fog  
Wind Chill: 45°   Ceiling: 200
Heat Index: 49°   Visibility: 1mi
Dew Point: 47°   Wind: 9mph
Humidity: 93%   Direction: 320°NW
Pressure: 30.01"   Gusts: NA
Location:  35.03°N, 76.83°W
Report Text: KNKT 222301Z 32008KT 1SM FG OVC002 09/08 A3001 RMK AO2 SFC VIS 1 1/2 T00940083 $
Loading
Personal Weather Stations






























Interactive Weather Map New forecast layout! Learn more

10-Day Weather Forecast

Advertisements
Track Severe Weather on mobile